Terminal Aerodrome Forecast
Issued by NWS

Home | Current Version | Previous Version | Text Only | Print | Product List | Glossary On
Versions: 1 2 3 4 5 6 7 8 9 10 11 12 13 14 15 16 17 18 19
074
FTUS43 KSGF 240520
TAFJLN
TAF
KJLN 240520Z 2406/2506 16016G23KT P6SM BKN250 WS020/17050KT
     FM241200 17018G28KT P6SM BKN100
     FM241500 18019G29KT P6SM OVC050
     FM241800 16016G24KT P6SM VCSH OVC030 PROB30 2418/2424 5SM -TSRA
      BKN025CB
     FM250000 15012KT P6SM -SHRA OVC030=

USA.gov is the U.S. government's official web portal to all federal, state and local government web resources and services.